VAM | Vabird-VBD

Virtual Vabird! Aerolínea Virtual de habla hispana, desde 2011




 INFORMACIÓN METAR y TAF
METAR FOR FNUB
ADDS - METARS form results

(2103 UTC 21 January 2021)
Data provider http://aviationweather.gov/metar/data/
 
Forecast for: FNUB (LUBANGO , AO)
Text: TAF FNUB 211132Z 2112/2124 28008KT 9999 FEW020 BKN050
Forecast period: 1200 to 2200 UTC 21 January 2021
Forecast type: FROM: standard forecast or significant change
Winds: from the W (280 degrees) at 9 MPH (8 knots; 4.1 m/s)
Visibility: 6 or more miles (10+ km)
Ceiling: 5000 feet AGL
Clouds: few clouds at 2000 feet AGL
broken clouds at 5000 feet AGL
Weather: no significant weather forecast for this period
Text: BECMG 2122/2124 VRB02KT 9000 BKN025
Forecast period: 2200 UTC 21 January 2021 to 0000 UTC 22 January 2021
Forecast type: BECOMING: Conditions expected to become as follows by 0000 UTC 22 January 2021
Winds: variable direction winds at 2 MPH (2 knots; 1.0 m/s)
Visibility: 6 miles (9 km)
Ceiling: 2500 feet AGL
Clouds: broken clouds at 2500 feet AGL
Weather: no significant weather forecast for this period

 MAPA DE AEROPUERTO

 INFORMACIÓN DE PISTA